Terminal Aerodrome Forecast
Issued by NWS Duluth, MN

Home | Current Version | Previous Version | Text Only | Print | Product List | Glossary On
Versions: 1 2 3 4 5 6 7 8 9 10 11 12 13 14 15 16
405
FTUS43 KDLH 211730
TAFINL
TAF
KINL 211730Z 2118/2218 26007KT P6SM FEW080
     FM220100 VRB03KT P6SM SKC
     FM221200 19006KT P6SM SKC
     FM221500 19010G17KT P6SM SKC=

USA.gov is the U.S. government's official web portal to all federal, state and local government web resources and services.